sensor_id;sensor_type;location;lat;lon;timestamp;temperature;humidity
4324;DHT22;2175;51.018;6.994;2024-03-25T00:00:22;7.10;99.90
4324;DHT22;2175;51.018;6.994;2024-03-25T00:02:50;7.10;99.90
4324;DHT22;2175;51.018;6.994;2024-03-25T00:05:16;7.10;99.90
4324;DHT22;2175;51.018;6.994;2024-03-25T00:07:47;6.90;99.90
4324;DHT22;2175;51.018;6.994;2024-03-25T00:10:13;6.80;99.90
4324;DHT22;2175;51.018;6.994;2024-03-25T00:12:38;6.80;99.90
4324;DHT22;2175;51.018;6.994;2024-03-25T00:15:04;6.70;99.90
4324;DHT22;2175;51.018;6.994;2024-03-25T00:17:30;6.70;99.90
4324;DHT22;2175;51.018;6.994;2024-03-25T00:19:56;6.60;99.90
4324;DHT22;2175;51.018;6.994;2024-03-25T00:22:22;6.70;99.90
4324;DHT22;2175;51.018;6.994;2024-03-25T00:24:50;6.70;99.90
4324;DHT22;2175;51.018;6.994;2024-03-25T00:27:17;6.60;99.90
4324;DHT22;2175;51.018;6.994;2024-03-25T00:29:42;6.50;99.90
4324;DHT22;2175;51.018;6.994;2024-03-25T00:32:08;6.40;99.90
4324;DHT22;2175;51.018;6.994;2024-03-25T00:34:34;6.40;99.90
4324;DHT22;2175;51.018;6.994;2024-03-25T00:37:00;6.50;99.90
4324;DHT22;2175;51.018;6.994;2024-03-25T00:39:26;6.60;99.90
4324;DHT22;2175;51.018;6.994;2024-03-25T00:41:52;6.50;99.90
4324;DHT22;2175;51.018;6.994;2024-03-25T00:44:18;6.50;99.90
4324;DHT22;2175;51.018;6.994;2024-03-25T00:46:44;6.60;99.90
4324;DHT22;2175;51.018;6.994;2024-03-25T00:49:10;6.70;99.90
4324;DHT22;2175;51.018;6.994;2024-03-25T00:51:36;6.70;99.90
4324;DHT22;2175;51.018;6.994;2024-03-25T00:54:02;6.60;99.90
4324;DHT22;2175;51.018;6.994;2024-03-25T00:56:28;6.60;99.90
4324;DHT22;2175;51.018;6.994;2024-03-25T00:58:54;6.60;99.90
4324;DHT22;2175;51.018;6.994;2024-03-25T01:01:20;6.60;99.90
4324;DHT22;2175;51.018;6.994;2024-03-25T01:03:46;6.70;99.90
4324;DHT22;2175;51.018;6.994;2024-03-25T01:06:12;6.60;99.90
4324;DHT22;2175;51.018;6.994;2024-03-25T01:08:38;6.60;99.90
4324;DHT22;2175;51.018;6.994;2024-03-25T01:11:04;6.60;99.90
4324;DHT22;2175;51.018;6.994;2024-03-25T01:13:30;6.70;99.90
4324;DHT22;2175;51.018;6.994;2024-03-25T01:15:55;6.70;99.90
4324;DHT22;2175;51.018;6.994;2024-03-25T01:18:21;6.60;99.90
4324;DHT22;2175;51.018;6.994;2024-03-25T01:20:47;6.50;99.90
4324;DHT22;2175;51.018;6.994;2024-03-25T01:23:12;6.50;99.90
4324;DHT22;2175;51.018;6.994;2024-03-25T01:25:38;6.50;99.90
4324;DHT22;2175;51.018;6.994;2024-03-25T01:28:03;6.50;99.90
4324;DHT22;2175;51.018;6.994;2024-03-25T01:30:29;6.50;99.90
4324;DHT22;2175;51.018;6.994;2024-03-25T01:32:55;6.50;99.90
4324;DHT22;2175;51.018;6.994;2024-03-25T01:35:20;6.40;99.90
4324;DHT22;2175;51.018;6.994;2024-03-25T01:37:46;6.50;99.90
4324;DHT22;2175;51.018;6.994;2024-03-25T01:40:12;6.50;99.90
4324;DHT22;2175;51.018;6.994;2024-03-25T01:42:38;6.60;99.90
4324;DHT22;2175;51.018;6.994;2024-03-25T01:45:04;6.60;99.90
4324;DHT22;2175;51.018;6.994;2024-03-25T01:47:31;6.60;99.90
4324;DHT22;2175;51.018;6.994;2024-03-25T01:49:59;6.50;99.90
4324;DHT22;2175;51.018;6.994;2024-03-25T01:52:26;6.60;99.90
4324;DHT22;2175;51.018;6.994;2024-03-25T01:54:52;6.60;99.90
4324;DHT22;2175;51.018;6.994;2024-03-25T01:57:18;6.60;99.90
4324;DHT22;2175;51.018;6.994;2024-03-25T01:59:44;6.50;99.90
4324;DHT22;2175;51.018;6.994;2024-03-25T02:02:11;6.60;99.90
4324;DHT22;2175;51.018;6.994;2024-03-25T02:04:38;6.50;99.90
4324;DHT22;2175;51.018;6.994;2024-03-25T02:07:07;6.40;99.90
4324;DHT22;2175;51.018;6.994;2024-03-25T02:09:34;6.40;99.90
4324;DHT22;2175;51.018;6.994;2024-03-25T02:12:01;6.40;99.90
4324;DHT22;2175;51.018;6.994;2024-03-25T02:14:27;6.50;99.90
4324;DHT22;2175;51.018;6.994;2024-03-25T02:16:53;6.30;99.90
4324;DHT22;2175;51.018;6.994;2024-03-25T02:19:18;6.20;99.90
4324;DHT22;2175;51.018;6.994;2024-03-25T02:21:44;6.30;99.90
4324;DHT22;2175;51.018;6.994;2024-03-25T02:24:10;6.30;99.90
4324;DHT22;2175;51.018;6.994;2024-03-25T02:26:37;6.30;99.90
4324;DHT22;2175;51.018;6.994;2024-03-25T02:29:03;6.30;99.90
4324;DHT22;2175;51.018;6.994;2024-03-25T02:31:28;6.30;99.90
4324;DHT22;2175;51.018;6.994;2024-03-25T02:33:54;6.30;99.90
4324;DHT22;2175;51.018;6.994;2024-03-25T02:36:19;6.40;99.90
4324;DHT22;2175;51.018;6.994;2024-03-25T02:38:45;6.30;99.90
4324;DHT22;2175;51.018;6.994;2024-03-25T02:41:11;6.20;99.90
4324;DHT22;2175;51.018;6.994;2024-03-25T02:43:36;6.30;99.90
4324;DHT22;2175;51.018;6.994;2024-03-25T02:46:02;6.30;99.90
4324;DHT22;2175;51.018;6.994;2024-03-25T02:48:28;6.20;99.90
4324;DHT22;2175;51.018;6.994;2024-03-25T02:50:53;6.20;99.90
4324;DHT22;2175;51.018;6.994;2024-03-25T02:53:19;6.20;99.90
4324;DHT22;2175;51.018;6.994;2024-03-25T02:55:44;6.20;99.90
4324;DHT22;2175;51.018;6.994;2024-03-25T02:58:10;6.30;99.90
4324;DHT22;2175;51.018;6.994;2024-03-25T03:00:35;6.30;99.90
4324;DHT22;2175;51.018;6.994;2024-03-25T03:03:01;6.40;99.90
4324;DHT22;2175;51.018;6.994;2024-03-25T03:05:26;6.40;99.90
4324;DHT22;2175;51.018;6.994;2024-03-25T03:07:52;6.40;99.90
4324;DHT22;2175;51.018;6.994;2024-03-25T03:10:18;6.40;99.90
4324;DHT22;2175;51.018;6.994;2024-03-25T03:12:43;6.30;99.90
4324;DHT22;2175;51.018;6.994;2024-03-25T03:15:09;6.40;99.90
4324;DHT22;2175;51.018;6.994;2024-03-25T03:17:34;6.40;99.90
4324;DHT22;2175;51.018;6.994;2024-03-25T03:20:00;6.40;99.90
4324;DHT22;2175;51.018;6.994;2024-03-25T03:22:26;6.40;99.90
4324;DHT22;2175;51.018;6.994;2024-03-25T03:24:51;6.40;99.90
4324;DHT22;2175;51.018;6.994;2024-03-25T03:27:17;6.40;99.90
4324;DHT22;2175;51.018;6.994;2024-03-25T03:29:42;6.40;99.90
4324;DHT22;2175;51.018;6.994;2024-03-25T03:32:08;6.40;99.90
4324;DHT22;2175;51.018;6.994;2024-03-25T03:34:34;6.40;99.90
4324;DHT22;2175;51.018;6.994;2024-03-25T03:36:59;6.40;99.90
4324;DHT22;2175;51.018;6.994;2024-03-25T03:39:25;6.40;99.90
4324;DHT22;2175;51.018;6.994;2024-03-25T03:41:50;6.40;99.90
4324;DHT22;2175;51.018;6.994;2024-03-25T03:44:16;6.30;99.90
4324;DHT22;2175;51.018;6.994;2024-03-25T03:46:41;6.30;99.90
4324;DHT22;2175;51.018;6.994;2024-03-25T03:49:07;6.30;99.90
4324;DHT22;2175;51.018;6.994;2024-03-25T03:51:32;6.30;99.90
4324;DHT22;2175;51.018;6.994;2024-03-25T03:53:58;6.20;99.90
4324;DHT22;2175;51.018;6.994;2024-03-25T03:56:24;6.20;99.90
4324;DHT22;2175;51.018;6.994;2024-03-25T03:58:49;6.20;99.90
4324;DHT22;2175;51.018;6.994;2024-03-25T04:01:18;6.10;99.90
4324;DHT22;2175;51.018;6.994;2024-03-25T04:03:44;6.00;99.90
4324;DHT22;2175;51.018;6.994;2024-03-25T04:06:14;5.90;99.90
4324;DHT22;2175;51.018;6.994;2024-03-25T04:08:40;5.70;99.90
4324;DHT22;2175;51.018;6.994;2024-03-25T04:11:06;5.80;99.90
4324;DHT22;2175;51.018;6.994;2024-03-25T04:13:33;5.80;99.90
4324;DHT22;2175;51.018;6.994;2024-03-25T04:16:03;5.80;99.90
4324;DHT22;2175;51.018;6.994;2024-03-25T04:18:30;5.80;99.90
4324;DHT22;2175;51.018;6.994;2024-03-25T04:20:56;5.90;99.90
4324;DHT22;2175;51.018;6.994;2024-03-25T04:23:21;5.90;99.90
4324;DHT22;2175;51.018;6.994;2024-03-25T04:25:48;5.90;99.90
4324;DHT22;2175;51.018;6.994;2024-03-25T04:28:14;5.70;99.90
4324;DHT22;2175;51.018;6.994;2024-03-25T04:30:39;5.70;99.90
4324;DHT22;2175;51.018;6.994;2024-03-25T04:33:05;5.60;99.90
4324;DHT22;2175;51.018;6.994;2024-03-25T04:35:30;5.60;99.90
4324;DHT22;2175;51.018;6.994;2024-03-25T04:37:56;5.50;99.90
4324;DHT22;2175;51.018;6.994;2024-03-25T04:40:22;5.50;99.90
4324;DHT22;2175;51.018;6.994;2024-03-25T04:42:48;5.40;99.90
4324;DHT22;2175;51.018;6.994;2024-03-25T04:45:14;5.40;99.90
4324;DHT22;2175;51.018;6.994;2024-03-25T04:47:39;5.40;99.90
4324;DHT22;2175;51.018;6.994;2024-03-25T04:50:06;5.40;99.90
4324;DHT22;2175;51.018;6.994;2024-03-25T04:52:32;5.30;99.90
4324;DHT22;2175;51.018;6.994;2024-03-25T04:54:57;5.30;99.90
4324;DHT22;2175;51.018;6.994;2024-03-25T04:57:24;5.30;99.90
4324;DHT22;2175;51.018;6.994;2024-03-25T04:59:49;5.20;99.90
4324;DHT22;2175;51.018;6.994;2024-03-25T05:02:15;5.20;99.90
4324;DHT22;2175;51.018;6.994;2024-03-25T05:04:41;5.20;99.90
4324;DHT22;2175;51.018;6.994;2024-03-25T05:07:06;5.10;99.90
4324;DHT22;2175;51.018;6.994;2024-03-25T05:09:32;5.00;99.90
4324;DHT22;2175;51.018;6.994;2024-03-25T05:11:58;5.00;99.90
4324;DHT22;2175;51.018;6.994;2024-03-25T05:14:24;4.90;99.90
4324;DHT22;2175;51.018;6.994;2024-03-25T05:16:50;4.90;99.90
4324;DHT22;2175;51.018;6.994;2024-03-25T05:19:17;4.90;99.90
4324;DHT22;2175;51.018;6.994;2024-03-25T05:21:44;4.90;99.90
4324;DHT22;2175;51.018;6.994;2024-03-25T05:24:09;4.70;99.90
4324;DHT22;2175;51.018;6.994;2024-03-25T05:26:35;4.70;99.90
4324;DHT22;2175;51.018;6.994;2024-03-25T05:29:00;4.70;99.90
4324;DHT22;2175;51.018;6.994;2024-03-25T05:31:26;4.70;99.90
4324;DHT22;2175;51.018;6.994;2024-03-25T05:33:53;4.60;99.90
4324;DHT22;2175;51.018;6.994;2024-03-25T05:36:18;4.60;99.90
4324;DHT22;2175;51.018;6.994;2024-03-25T05:38:44;4.50;99.90
4324;DHT22;2175;51.018;6.994;2024-03-25T05:41:10;4.60;99.90
4324;DHT22;2175;51.018;6.994;2024-03-25T05:43:36;4.60;99.90
4324;DHT22;2175;51.018;6.994;2024-03-25T05:46:02;4.60;99.90
4324;DHT22;2175;51.018;6.994;2024-03-25T05:48:28;4.60;99.90
4324;DHT22;2175;51.018;6.994;2024-03-25T05:51:01;4.60;99.90
4324;DHT22;2175;51.018;6.994;2024-03-25T05:53:27;4.50;99.90
4324;DHT22;2175;51.018;6.994;2024-03-25T05:55:53;4.50;99.90
4324;DHT22;2175;51.018;6.994;2024-03-25T05:58:19;4.50;99.90
4324;DHT22;2175;51.018;6.994;2024-03-25T06:00:47;4.50;99.90
4324;DHT22;2175;51.018;6.994;2024-03-25T06:03:13;4.60;99.90
4324;DHT22;2175;51.018;6.994;2024-03-25T06:05:39;4.60;99.90
4324;DHT22;2175;51.018;6.994;2024-03-25T06:08:05;4.70;99.90
4324;DHT22;2175;51.018;6.994;2024-03-25T06:10:36;4.70;99.90
4324;DHT22;2175;51.018;6.994;2024-03-25T06:13:01;4.80;99.90
4324;DHT22;2175;51.018;6.994;2024-03-25T06:15:27;4.90;99.90
4324;DHT22;2175;51.018;6.994;2024-03-25T06:17:52;4.90;99.90
4324;DHT22;2175;51.018;6.994;2024-03-25T06:20:18;5.00;99.90
4324;DHT22;2175;51.018;6.994;2024-03-25T06:22:43;5.00;99.90
4324;DHT22;2175;51.018;6.994;2024-03-25T06:25:09;5.00;99.90
4324;DHT22;2175;51.018;6.994;2024-03-25T06:27:34;5.00;99.90
4324;DHT22;2175;51.018;6.994;2024-03-25T06:30:00;4.90;99.90
4324;DHT22;2175;51.018;6.994;2024-03-25T06:32:45;5.10;99.90
4324;DHT22;2175;51.018;6.994;2024-03-25T06:35:29;5.20;99.90
4324;DHT22;2175;51.018;6.994;2024-03-25T06:37:54;5.30;99.90
4324;DHT22;2175;51.018;6.994;2024-03-25T06:40:20;5.40;99.90
4324;DHT22;2175;51.018;6.994;2024-03-25T06:42:47;5.50;99.90
4324;DHT22;2175;51.018;6.994;2024-03-25T06:45:13;5.60;99.90
4324;DHT22;2175;51.018;6.994;2024-03-25T06:47:40;5.70;99.90
4324;DHT22;2175;51.018;6.994;2024-03-25T06:50:06;5.60;99.90
4324;DHT22;2175;51.018;6.994;2024-03-25T06:52:32;5.60;99.90
4324;DHT22;2175;51.018;6.994;2024-03-25T06:54:57;5.60;99.90
4324;DHT22;2175;51.018;6.994;2024-03-25T06:57:23;5.60;99.90
4324;DHT22;2175;51.018;6.994;2024-03-25T06:59:48;5.80;99.90
4324;DHT22;2175;51.018;6.994;2024-03-25T07:02:14;5.70;99.90
4324;DHT22;2175;51.018;6.994;2024-03-25T07:04:40;5.80;99.90
4324;DHT22;2175;51.018;6.994;2024-03-25T07:07:05;5.80;99.90
4324;DHT22;2175;51.018;6.994;2024-03-25T07:09:31;5.80;99.90
4324;DHT22;2175;51.018;6.994;2024-03-25T07:11:56;5.80;99.90
4324;DHT22;2175;51.018;6.994;2024-03-25T07:14:22;5.90;99.90
4324;DHT22;2175;51.018;6.994;2024-03-25T07:16:48;6.00;99.90
4324;DHT22;2175;51.018;6.994;2024-03-25T07:19:13;6.10;99.90
4324;DHT22;2175;51.018;6.994;2024-03-25T07:21:39;6.10;99.90
4324;DHT22;2175;51.018;6.994;2024-03-25T07:24:04;6.20;99.90
4324;DHT22;2175;51.018;6.994;2024-03-25T07:26:30;6.30;99.90
4324;DHT22;2175;51.018;6.994;2024-03-25T07:28:56;6.30;99.90
4324;DHT22;2175;51.018;6.994;2024-03-25T07:31:21;6.40;99.90
4324;DHT22;2175;51.018;6.994;2024-03-25T07:33:47;6.40;99.90
4324;DHT22;2175;51.018;6.994;2024-03-25T07:36:12;6.50;99.90
4324;DHT22;2175;51.018;6.994;2024-03-25T07:38:38;6.60;99.90
4324;DHT22;2175;51.018;6.994;2024-03-25T07:41:04;6.80;99.90
4324;DHT22;2175;51.018;6.994;2024-03-25T07:43:30;6.90;99.90
4324;DHT22;2175;51.018;6.994;2024-03-25T07:45:56;6.90;1.00
4324;DHT22;2175;51.018;6.994;2024-03-25T07:48:21;7.10;24.80
4324;DHT22;2175;51.018;6.994;2024-03-25T07:50:47;7.20;1.00
4324;DHT22;2175;51.018;6.994;2024-03-25T07:53:12;7.40;99.90
4324;DHT22;2175;51.018;6.994;2024-03-25T07:55:38;7.60;1.00
4324;DHT22;2175;51.018;6.994;2024-03-25T07:58:03;7.70;99.90
4324;DHT22;2175;51.018;6.994;2024-03-25T08:00:29;7.70;99.90
4324;DHT22;2175;51.018;6.994;2024-03-25T08:02:54;7.80;1.00
4324;DHT22;2175;51.018;6.994;2024-03-25T08:05:20;7.90;1.00
4324;DHT22;2175;51.018;6.994;2024-03-25T08:07:47;8.20;1.00
4324;DHT22;2175;51.018;6.994;2024-03-25T08:10:13;9.70;1.00
4324;DHT22;2175;51.018;6.994;2024-03-25T08:12:39;11.00;52.20
4324;DHT22;2175;51.018;6.994;2024-03-25T08:15:05;12.00;1.00
4324;DHT22;2175;51.018;6.994;2024-03-25T08:17:30;12.70;1.00
4324;DHT22;2175;51.018;6.994;2024-03-25T08:19:56;12.90;1.00
4324;DHT22;2175;51.018;6.994;2024-03-25T08:22:21;13.50;1.00
4324;DHT22;2175;51.018;6.994;2024-03-25T08:24:47;14.10;1.00
4324;DHT22;2175;51.018;6.994;2024-03-25T08:27:13;12.20;1.00
4324;DHT22;2175;51.018;6.994;2024-03-25T08:29:38;11.40;1.00
4324;DHT22;2175;51.018;6.994;2024-03-25T08:32:04;11.40;1.00
4324;DHT22;2175;51.018;6.994;2024-03-25T08:34:30;11.70;1.00
4324;DHT22;2175;51.018;6.994;2024-03-25T08:36:55;12.20;1.00
4324;DHT22;2175;51.018;6.994;2024-03-25T08:39:21;11.30;1.00
4324;DHT22;2175;51.018;6.994;2024-03-25T08:41:46;10.50;1.00
4324;DHT22;2175;51.018;6.994;2024-03-25T08:44:12;11.50;1.00
4324;DHT22;2175;51.018;6.994;2024-03-25T08:46:39;11.80;1.00
4324;DHT22;2175;51.018;6.994;2024-03-25T08:49:04;12.10;1.00
4324;DHT22;2175;51.018;6.994;2024-03-25T08:51:30;11.60;1.00
4324;DHT22;2175;51.018;6.994;2024-03-25T08:53:55;12.50;1.00
4324;DHT22;2175;51.018;6.994;2024-03-25T08:56:21;13.70;1.00
4324;DHT22;2175;51.018;6.994;2024-03-25T08:58:47;13.90;1.00
4324;DHT22;2175;51.018;6.994;2024-03-25T09:01:12;13.80;1.00
4324;DHT22;2175;51.018;6.994;2024-03-25T09:03:40;13.40;1.00
4324;DHT22;2175;51.018;6.994;2024-03-25T09:06:06;13.80;1.00
4324;DHT22;2175;51.018;6.994;2024-03-25T09:08:33;13.90;1.00
4324;DHT22;2175;51.018;6.994;2024-03-25T09:11:18;14.00;1.00
4324;DHT22;2175;51.018;6.994;2024-03-25T09:13:44;14.10;1.00
4324;DHT22;2175;51.018;6.994;2024-03-25T09:16:10;12.80;1.00
4324;DHT22;2175;51.018;6.994;2024-03-25T09:18:35;12.30;1.00
4324;DHT22;2175;51.018;6.994;2024-03-25T09:21:01;12.90;1.00
4324;DHT22;2175;51.018;6.994;2024-03-25T09:23:26;13.40;1.00
4324;DHT22;2175;51.018;6.994;2024-03-25T09:25:56;13.80;1.00
4324;DHT22;2175;51.018;6.994;2024-03-25T09:28:22;13.20;1.00
4324;DHT22;2175;51.018;6.994;2024-03-25T09:30:48;12.30;1.00
4324;DHT22;2175;51.018;6.994;2024-03-25T09:33:15;12.70;1.00
4324;DHT22;2175;51.018;6.994;2024-03-25T09:35:40;13.80;1.00
4324;DHT22;2175;51.018;6.994;2024-03-25T09:38:06;14.20;1.00
4324;DHT22;2175;51.018;6.994;2024-03-25T09:40:34;14.50;1.00
4324;DHT22;2175;51.018;6.994;2024-03-25T09:43:02;14.80;1.00
4324;DHT22;2175;51.018;6.994;2024-03-25T09:45:29;14.80;1.00
4324;DHT22;2175;51.018;6.994;2024-03-25T09:47:56;14.70;1.00
4324;DHT22;2175;51.018;6.994;2024-03-25T09:50:22;14.50;1.00
4324;DHT22;2175;51.018;6.994;2024-03-25T09:52:48;13.90;1.00
4324;DHT22;2175;51.018;6.994;2024-03-25T09:55:14;13.20;1.00
4324;DHT22;2175;51.018;6.994;2024-03-25T09:57:40;13.40;1.00
4324;DHT22;2175;51.018;6.994;2024-03-25T10:00:08;13.10;1.00
4324;DHT22;2175;51.018;6.994;2024-03-25T10:02:35;12.20;1.00
4324;DHT22;2175;51.018;6.994;2024-03-25T10:05:01;11.70;1.00
4324;DHT22;2175;51.018;6.994;2024-03-25T10:07:28;11.60;1.00
4324;DHT22;2175;51.018;6.994;2024-03-25T10:09:54;12.20;1.00
4324;DHT22;2175;51.018;6.994;2024-03-25T10:12:19;12.90;1.00
4324;DHT22;2175;51.018;6.994;2024-03-25T10:14:45;13.20;1.00
4324;DHT22;2175;51.018;6.994;2024-03-25T10:17:11;13.30;1.00
4324;DHT22;2175;51.018;6.994;2024-03-25T10:19:37;13.20;1.00
4324;DHT22;2175;51.018;6.994;2024-03-25T10:22:07;13.50;1.00
4324;DHT22;2175;51.018;6.994;2024-03-25T10:24:44;13.50;1.00
4324;DHT22;2175;51.018;6.994;2024-03-25T10:27:20;13.60;1.00
4324;DHT22;2175;51.018;6.994;2024-03-25T10:29:53;13.30;1.00
4324;DHT22;2175;51.018;6.994;2024-03-25T10:32:21;13.10;1.00
4324;DHT22;2175;51.018;6.994;2024-03-25T10:34:47;12.90;1.00
4324;DHT22;2175;51.018;6.994;2024-03-25T10:37:14;12.20;1.00
4324;DHT22;2175;51.018;6.994;2024-03-25T10:39:48;11.90;1.00
4324;DHT22;2175;51.018;6.994;2024-03-25T10:42:18;11.80;1.00
4324;DHT22;2175;51.018;6.994;2024-03-25T10:44:44;12.40;1.00
4324;DHT22;2175;51.018;6.994;2024-03-25T10:47:13;12.70;1.00
4324;DHT22;2175;51.018;6.994;2024-03-25T10:49:49;12.20;1.00
4324;DHT22;2175;51.018;6.994;2024-03-25T10:52:16;11.70;1.00
4324;DHT22;2175;51.018;6.994;2024-03-25T10:54:45;11.60;1.00
4324;DHT22;2175;51.018;6.994;2024-03-25T10:57:13;11.50;1.00
4324;DHT22;2175;51.018;6.994;2024-03-25T10:59:40;11.60;1.00
4324;DHT22;2175;51.018;6.994;2024-03-25T11:02:07;11.80;1.00
4324;DHT22;2175;51.018;6.994;2024-03-25T11:04:33;12.50;1.00
4324;DHT22;2175;51.018;6.994;2024-03-25T11:07:13;12.40;1.00
4324;DHT22;2175;51.018;6.994;2024-03-25T11:09:40;12.60;1.00
4324;DHT22;2175;51.018;6.994;2024-03-25T11:12:06;12.70;1.00
4324;DHT22;2175;51.018;6.994;2024-03-25T11:14:33;12.40;1.00
4324;DHT22;2175;51.018;6.994;2024-03-25T11:16:59;12.20;1.00
4324;DHT22;2175;51.018;6.994;2024-03-25T11:19:26;12.40;1.00
4324;DHT22;2175;51.018;6.994;2024-03-25T11:21:52;11.90;1.00
4324;DHT22;2175;51.018;6.994;2024-03-25T11:24:28;12.20;1.00
4324;DHT22;2175;51.018;6.994;2024-03-25T11:26:54;12.30;1.00
4324;DHT22;2175;51.018;6.994;2024-03-25T11:29:20;12.50;1.00
4324;DHT22;2175;51.018;6.994;2024-03-25T11:31:45;12.30;1.00
4324;DHT22;2175;51.018;6.994;2024-03-25T11:34:14;12.50;1.00
4324;DHT22;2175;51.018;6.994;2024-03-25T11:36:39;12.20;1.00
4324;DHT22;2175;51.018;6.994;2024-03-25T11:39:05;12.40;1.00
4324;DHT22;2175;51.018;6.994;2024-03-25T11:41:38;12.10;1.00
4324;DHT22;2175;51.018;6.994;2024-03-25T11:44:04;12.10;1.00
4324;DHT22;2175;51.018;6.994;2024-03-25T11:46:30;12.10;1.00
4324;DHT22;2175;51.018;6.994;2024-03-25T11:48:56;12.50;1.00
4324;DHT22;2175;51.018;6.994;2024-03-25T11:51:21;12.70;1.00
4324;DHT22;2175;51.018;6.994;2024-03-25T11:53:47;12.40;1.00
4324;DHT22;2175;51.018;6.994;2024-03-25T11:56:13;12.40;1.00
4324;DHT22;2175;51.018;6.994;2024-03-25T11:58:39;12.50;1.00
4324;DHT22;2175;51.018;6.994;2024-03-25T12:01:05;12.70;1.00
4324;DHT22;2175;51.018;6.994;2024-03-25T12:03:33;12.80;1.00
4324;DHT22;2175;51.018;6.994;2024-03-25T12:05:58;12.50;1.00
4324;DHT22;2175;51.018;6.994;2024-03-25T12:08:24;12.60;1.00
4324;DHT22;2175;51.018;6.994;2024-03-25T12:10:52;12.60;1.00
4324;DHT22;2175;51.018;6.994;2024-03-25T12:13:38;12.60;1.00
4324;DHT22;2175;51.018;6.994;2024-03-25T12:16:08;12.70;1.00
4324;DHT22;2175;51.018;6.994;2024-03-25T12:18:35;12.40;1.00
4324;DHT22;2175;51.018;6.994;2024-03-25T12:21:01;12.00;1.00
4324;DHT22;2175;51.018;6.994;2024-03-25T12:23:32;12.10;1.00
4324;DHT22;2175;51.018;6.994;2024-03-25T12:26:02;12.10;1.00
4324;DHT22;2175;51.018;6.994;2024-03-25T12:28:28;12.40;1.00
4324;DHT22;2175;51.018;6.994;2024-03-25T12:30:55;12.30;1.00
4324;DHT22;2175;51.018;6.994;2024-03-25T12:33:24;12.10;1.00
4324;DHT22;2175;51.018;6.994;2024-03-25T12:35:51;12.20;1.00
4324;DHT22;2175;51.018;6.994;2024-03-25T12:38:26;12.30;1.00
4324;DHT22;2175;51.018;6.994;2024-03-25T12:40:53;12.20;1.00
4324;DHT22;2175;51.018;6.994;2024-03-25T12:43:19;12.10;1.00
4324;DHT22;2175;51.018;6.994;2024-03-25T12:45:45;12.00;1.00
4324;DHT22;2175;51.018;6.994;2024-03-25T12:48:11;12.00;1.00
4324;DHT22;2175;51.018;6.994;2024-03-25T12:50:37;12.00;1.00
4324;DHT22;2175;51.018;6.994;2024-03-25T12:53:03;11.90;1.00
4324;DHT22;2175;51.018;6.994;2024-03-25T12:55:29;12.20;1.00
4324;DHT22;2175;51.018;6.994;2024-03-25T12:57:55;12.30;1.00
4324;DHT22;2175;51.018;6.994;2024-03-25T13:00:21;12.40;1.00
4324;DHT22;2175;51.018;6.994;2024-03-25T13:02:46;12.50;1.00
4324;DHT22;2175;51.018;6.994;2024-03-25T13:05:12;12.20;1.00
4324;DHT22;2175;51.018;6.994;2024-03-25T13:07:37;12.20;1.00
4324;DHT22;2175;51.018;6.994;2024-03-25T13:10:03;12.40;1.00
4324;DHT22;2175;51.018;6.994;2024-03-25T13:12:30;12.60;1.00
4324;DHT22;2175;51.018;6.994;2024-03-25T13:14:56;12.40;1.00
4324;DHT22;2175;51.018;6.994;2024-03-25T13:17:22;12.30;1.00
4324;DHT22;2175;51.018;6.994;2024-03-25T13:19:48;12.30;1.00
4324;DHT22;2175;51.018;6.994;2024-03-25T13:22:14;12.10;1.00
4324;DHT22;2175;51.018;6.994;2024-03-25T13:24:39;12.20;1.00
4324;DHT22;2175;51.018;6.994;2024-03-25T13:27:05;12.30;1.00
4324;DHT22;2175;51.018;6.994;2024-03-25T13:29:31;12.20;1.00
4324;DHT22;2175;51.018;6.994;2024-03-25T13:31:57;12.10;1.00
4324;DHT22;2175;51.018;6.994;2024-03-25T13:34:23;12.10;1.00
4324;DHT22;2175;51.018;6.994;2024-03-25T13:36:48;12.20;1.00
4324;DHT22;2175;51.018;6.994;2024-03-25T13:39:14;12.20;1.00
4324;DHT22;2175;51.018;6.994;2024-03-25T13:41:39;12.40;1.00
4324;DHT22;2175;51.018;6.994;2024-03-25T13:44:05;12.50;1.00
4324;DHT22;2175;51.018;6.994;2024-03-25T13:46:30;12.40;1.00
4324;DHT22;2175;51.018;6.994;2024-03-25T13:48:56;12.40;1.00
4324;DHT22;2175;51.018;6.994;2024-03-25T13:51:22;12.60;1.00
4324;DHT22;2175;51.018;6.994;2024-03-25T13:53:47;12.80;1.00
4324;DHT22;2175;51.018;6.994;2024-03-25T13:56:13;12.70;1.00
4324;DHT22;2175;51.018;6.994;2024-03-25T13:58:39;12.60;1.00
4324;DHT22;2175;51.018;6.994;2024-03-25T14:01:04;12.40;1.00
4324;DHT22;2175;51.018;6.994;2024-03-25T14:03:31;12.50;1.00
4324;DHT22;2175;51.018;6.994;2024-03-25T14:05:56;12.60;1.00
4324;DHT22;2175;51.018;6.994;2024-03-25T14:08:22;12.60;1.00
4324;DHT22;2175;51.018;6.994;2024-03-25T14:10:57;12.60;1.00
4324;DHT22;2175;51.018;6.994;2024-03-25T14:13:24;12.60;1.00
4324;DHT22;2175;51.018;6.994;2024-03-25T14:15:50;12.50;1.00
4324;DHT22;2175;51.018;6.994;2024-03-25T14:18:16;12.50;1.00
4324;DHT22;2175;51.018;6.994;2024-03-25T14:20:41;12.60;1.00
4324;DHT22;2175;51.018;6.994;2024-03-25T14:23:08;12.50;1.00
4324;DHT22;2175;51.018;6.994;2024-03-25T14:25:33;12.60;1.00
4324;DHT22;2175;51.018;6.994;2024-03-25T14:27:59;12.60;1.00
4324;DHT22;2175;51.018;6.994;2024-03-25T14:30:25;12.40;1.00
4324;DHT22;2175;51.018;6.994;2024-03-25T14:32:50;12.40;1.00
4324;DHT22;2175;51.018;6.994;2024-03-25T14:35:16;12.40;1.00
4324;DHT22;2175;51.018;6.994;2024-03-25T14:37:41;12.40;1.00
4324;DHT22;2175;51.018;6.994;2024-03-25T14:40:07;12.50;1.00
4324;DHT22;2175;51.018;6.994;2024-03-25T14:42:34;12.60;1.00
4324;DHT22;2175;51.018;6.994;2024-03-25T14:45:00;12.50;1.00
4324;DHT22;2175;51.018;6.994;2024-03-25T14:47:25;12.50;1.00
4324;DHT22;2175;51.018;6.994;2024-03-25T14:49:51;12.70;1.00
4324;DHT22;2175;51.018;6.994;2024-03-25T14:52:16;12.80;1.00
4324;DHT22;2175;51.018;6.994;2024-03-25T14:54:42;12.80;1.00
4324;DHT22;2175;51.018;6.994;2024-03-25T14:57:08;12.60;1.00
4324;DHT22;2175;51.018;6.994;2024-03-25T14:59:33;12.70;1.00
4324;DHT22;2175;51.018;6.994;2024-03-25T15:02:00;12.60;1.00
4324;DHT22;2175;51.018;6.994;2024-03-25T15:04:26;12.60;1.00
4324;DHT22;2175;51.018;6.994;2024-03-25T15:06:52;12.60;1.00
4324;DHT22;2175;51.018;6.994;2024-03-25T15:09:18;12.60;1.00
4324;DHT22;2175;51.018;6.994;2024-03-25T15:11:45;12.80;1.00
4324;DHT22;2175;51.018;6.994;2024-03-25T15:14:10;12.70;1.00
4324;DHT22;2175;51.018;6.994;2024-03-25T15:16:36;12.60;1.00
4324;DHT22;2175;51.018;6.994;2024-03-25T15:19:02;12.50;1.00
4324;DHT22;2175;51.018;6.994;2024-03-25T15:21:28;12.50;1.00
4324;DHT22;2175;51.018;6.994;2024-03-25T15:23:54;12.50;1.00
4324;DHT22;2175;51.018;6.994;2024-03-25T15:26:19;12.70;1.00
4324;DHT22;2175;51.018;6.994;2024-03-25T15:28:47;12.50;1.00
4324;DHT22;2175;51.018;6.994;2024-03-25T15:31:13;12.50;1.00
4324;DHT22;2175;51.018;6.994;2024-03-25T15:33:38;12.60;1.00
4324;DHT22;2175;51.018;6.994;2024-03-25T15:36:04;12.50;1.00
4324;DHT22;2175;51.018;6.994;2024-03-25T15:38:30;12.50;1.00
4324;DHT22;2175;51.018;6.994;2024-03-25T15:40:55;12.50;1.00
4324;DHT22;2175;51.018;6.994;2024-03-25T15:43:21;12.50;1.00
4324;DHT22;2175;51.018;6.994;2024-03-25T15:45:58;12.60;1.00
4324;DHT22;2175;51.018;6.994;2024-03-25T15:48:27;12.60;1.00
4324;DHT22;2175;51.018;6.994;2024-03-25T15:50:53;12.50;1.00
4324;DHT22;2175;51.018;6.994;2024-03-25T15:53:19;12.40;1.00
4324;DHT22;2175;51.018;6.994;2024-03-25T15:55:45;12.40;1.00
4324;DHT22;2175;51.018;6.994;2024-03-25T15:58:11;12.40;1.00
4324;DHT22;2175;51.018;6.994;2024-03-25T16:00:36;12.60;1.00
4324;DHT22;2175;51.018;6.994;2024-03-25T16:03:05;12.50;1.00
4324;DHT22;2175;51.018;6.994;2024-03-25T16:05:31;12.40;1.00
4324;DHT22;2175;51.018;6.994;2024-03-25T16:07:57;12.30;1.00
4324;DHT22;2175;51.018;6.994;2024-03-25T16:10:31;12.20;1.00